createdAt,value
2019-04-23T00:01:23.845Z,99.90
2019-04-23T00:03:47.479Z,99.90
2019-04-23T00:06:18.997Z,99.90
2019-04-23T00:08:49.034Z,99.90
2019-04-23T00:11:19.498Z,99.90
2019-04-23T00:13:49.936Z,99.90
2019-04-23T00:16:20.370Z,99.90
2019-04-23T00:18:56.075Z,99.90
2019-04-23T00:21:38.515Z,99.90
2019-04-23T00:24:11.452Z,99.90
2019-04-23T00:26:37.001Z,99.90
2019-04-23T00:29:11.733Z,99.90
2019-04-23T00:31:31.125Z,99.90
2019-04-23T00:34:01.062Z,99.90
2019-04-23T00:39:01.314Z,99.90
2019-04-23T00:41:36.508Z,99.90
2019-04-23T00:44:06.377Z,99.90
2019-04-23T00:46:36.824Z,99.90
2019-04-23T00:51:36.946Z,99.90
2019-04-23T00:54:14.462Z,99.90
2019-04-23T00:59:05.589Z,99.90
2019-04-23T01:01:46.917Z,99.90
2019-04-23T01:04:05.763Z,99.90
2019-04-23T01:06:39.053Z,99.90
2019-04-23T01:09:10.443Z,99.90
2019-04-23T01:11:39.356Z,99.90
2019-04-23T01:14:09.694Z,99.90
2019-04-23T01:16:37.543Z,99.90
2019-04-23T01:19:08.708Z,99.90
2019-04-23T01:21:36.644Z,99.90
2019-04-23T01:24:25.887Z,99.90
2019-04-23T01:30:05.053Z,99.90
2019-04-23T01:32:35.031Z,99.90
2019-04-23T01:35:12.507Z,99.90
2019-04-23T01:37:30.381Z,99.90
2019-04-23T01:40:04.284Z,99.90
2019-04-23T01:45:07.048Z,99.90
2019-04-23T01:47:40.648Z,99.90
2019-04-23T01:50:08.208Z,99.90
2019-04-23T01:52:39.130Z,99.90
2019-04-23T01:55:08.953Z,99.90
2019-04-23T01:57:42.281Z,99.90
2019-04-23T02:00:08.558Z,99.90
2019-04-23T02:02:44.297Z,99.90
2019-04-23T02:07:44.328Z,99.90
2019-04-23T02:10:14.168Z,99.90
2019-04-23T02:12:42.289Z,99.90
2019-04-23T02:15:13.719Z,99.90
2019-04-23T02:17:43.096Z,99.90
2019-04-23T02:23:04.921Z,99.90
2019-04-23T02:25:39.608Z,99.90
2019-04-23T02:38:10.170Z,99.90
2019-04-23T02:40:49.538Z,99.90
2019-04-23T02:43:56.258Z,99.90
2019-04-23T02:45:48.384Z,99.90
2019-04-23T02:48:19.903Z,99.90
2019-04-23T02:53:30.658Z,99.90
2019-04-23T02:56:07.676Z,99.90
2019-04-23T02:58:21.548Z,99.90
2019-04-23T03:01:06.805Z,99.90
2019-04-23T03:03:38.353Z,99.90
2019-04-23T03:08:17.095Z,99.90
2019-04-23T03:10:51.756Z,99.90
2019-04-23T03:13:32.519Z,99.90
2019-04-23T03:19:38.027Z,99.90
2019-04-23T03:21:27.064Z,99.90
2019-04-23T03:26:37.691Z,99.90
2019-04-23T03:29:06.075Z,99.90
2019-04-23T03:33:08.428Z,99.90
2019-04-23T03:37:02.200Z,99.90
2019-04-23T03:38:51.965Z,99.90
2019-04-23T03:41:39.629Z,99.90
2019-04-23T03:43:51.550Z,99.90
2019-04-23T03:46:46.659Z,99.90
2019-04-23T03:49:03.753Z,99.90
2019-04-23T03:51:43.578Z,99.90
2019-04-23T03:54:16.307Z,99.90
2019-04-23T03:56:45.246Z,99.90
2019-04-23T03:59:11.785Z,99.90
2019-04-23T04:01:34.778Z,99.90
2019-04-23T04:06:48.304Z,99.90
2019-04-23T04:11:33.542Z,99.90
2019-04-23T04:14:21.036Z,99.90
2019-04-23T04:16:45.022Z,99.90
2019-04-23T04:19:22.719Z,99.90
2019-04-23T04:21:38.965Z,99.90
2019-04-23T04:29:21.101Z,99.90
2019-04-23T04:31:48.319Z,99.90
2019-04-23T04:36:58.763Z,99.90
2019-04-23T04:39:08.158Z,99.90
2019-04-23T04:41:52.110Z,99.90
2019-04-23T04:46:45.480Z,99.90
2019-04-23T04:54:17.832Z,99.90
2019-04-23T04:56:42.700Z,99.90
2019-04-23T04:59:13.888Z,99.90
2019-04-23T05:01:52.272Z,99.90
2019-04-23T05:04:30.763Z,99.90
2019-04-23T05:09:40.568Z,99.90
2019-04-23T05:11:52.522Z,99.90
2019-04-23T05:14:25.189Z,99.90
2019-04-23T05:16:50.556Z,99.90
2019-04-23T05:19:29.556Z,99.90
2019-04-23T05:21:55.232Z,99.90
2019-04-23T05:26:37.516Z,99.90
2019-04-23T05:29:14.928Z,99.90
2019-04-23T05:31:49.808Z,99.90
2019-04-23T05:34:14.875Z,99.90
2019-04-23T05:47:25.464Z,99.90
2019-04-23T05:51:55.166Z,99.90
2019-04-23T05:54:27.687Z,99.90
2019-04-23T05:56:51.995Z,99.90
2019-04-23T05:59:23.207Z,99.90
2019-04-23T06:07:11.364Z,99.90
2019-04-23T06:09:28.723Z,99.90
2019-04-23T06:12:00.171Z,99.90
2019-04-23T06:14:25.113Z,99.90
2019-04-23T06:16:57.489Z,99.90
2019-04-23T06:19:22.731Z,99.90
2019-04-23T07:18:36.230Z,99.90
2019-04-23T07:21:09.807Z,99.90
2019-04-23T07:26:17.537Z,99.90
2019-04-23T07:28:43.862Z,99.90
2019-04-23T07:31:19.349Z,99.90
2019-04-23T07:33:49.528Z,99.90
2019-04-23T07:36:09.986Z,99.90
2019-04-23T07:38:54.934Z,99.90
2019-04-23T07:41:30.280Z,99.90
2019-04-23T07:44:05.843Z,99.90
2019-04-23T07:46:59.488Z,99.90
2019-04-23T07:49:11.912Z,99.90
2019-04-23T07:51:48.126Z,99.90
2019-04-23T07:54:16.039Z,99.90
2019-04-23T07:56:41.940Z,99.90
2019-04-23T07:59:19.243Z,99.90
2019-04-23T08:01:42.254Z,99.90
2019-04-23T08:04:25.516Z,99.90
2019-04-23T08:06:46.357Z,99.90
2019-04-23T08:09:17.525Z,99.90
2019-04-23T08:12:03.804Z,99.90
2019-04-23T08:14:32.222Z,99.90
2019-04-23T08:16:43.793Z,99.90
2019-04-23T08:19:15.487Z,99.90
2019-04-23T08:21:43.902Z,99.90
2019-04-23T08:24:45.053Z,99.90
2019-04-23T08:27:13.054Z,99.90
2019-04-23T08:29:38.466Z,99.90
2019-04-23T08:32:16.811Z,99.90
2019-04-23T08:35:04.425Z,99.90
2019-04-23T08:42:32.625Z,99.90
2019-04-23T08:47:52.465Z,99.90
2019-04-23T08:50:04.881Z,99.90
2019-04-23T08:52:37.031Z,99.90
2019-04-23T08:55:10.970Z,99.90
2019-04-23T08:57:38.296Z,99.90
2019-04-23T09:00:07.796Z,99.90
2019-04-23T09:05:32.573Z,99.90
2019-04-23T09:07:53.857Z,99.90
2019-04-23T09:10:15.843Z,99.90
2019-04-23T09:12:44.090Z,99.90
2019-04-23T09:15:18.338Z,99.90
2019-04-23T09:17:47.694Z,99.90
2019-04-23T09:20:23.430Z,99.90
2019-04-23T09:25:22.816Z,99.90
2019-04-23T09:27:45.252Z,99.90
2019-04-23T09:30:36.629Z,99.90
2019-04-23T09:32:57.171Z,99.90
2019-04-23T09:35:20.243Z,99.90
2019-04-23T09:37:52.064Z,99.90
2019-04-23T09:40:34.983Z,99.90
2019-04-23T09:43:00.598Z,99.90
2019-04-23T09:45:37.004Z,99.90
2019-04-23T09:55:37.405Z,99.90
2019-04-23T09:58:07.894Z,99.90
2019-04-23T10:00:56.158Z,99.90
2019-04-23T10:03:02.400Z,99.90
2019-04-23T10:05:29.137Z,99.90
2019-04-23T10:07:58.638Z,99.90
2019-04-23T10:10:18.603Z,99.90
2019-04-23T10:12:48.220Z,99.90
2019-04-23T10:15:24.310Z,99.90
2019-04-23T10:17:47.439Z,99.90
2019-04-23T10:20:16.558Z,99.90
2019-04-23T10:22:46.281Z,99.90
2019-04-23T10:25:15.401Z,99.90
2019-04-23T10:27:45.341Z,99.90
2019-04-23T10:30:15.173Z,99.90
2019-04-23T10:32:45.216Z,99.90
2019-04-23T10:35:22.127Z,99.90
2019-04-23T10:37:52.871Z,99.90
2019-04-23T10:40:22.935Z,99.90
2019-04-23T10:42:48.007Z,99.90
2019-04-23T10:45:36.924Z,99.90
2019-04-23T10:48:41.401Z,99.90
2019-04-23T10:51:15.786Z,99.90
2019-04-23T10:54:03.415Z,99.90
2019-04-23T10:56:23.394Z,99.90
2019-04-23T10:58:38.334Z,99.90
2019-04-23T11:01:22.638Z,99.90
2019-04-23T11:04:02.864Z,99.90
2019-04-23T11:06:28.817Z,99.90
2019-04-23T11:08:42.435Z,99.90
2019-04-23T11:11:25.501Z,99.90
2019-04-23T11:13:53.194Z,99.90
2019-04-23T11:16:49.262Z,99.90
2019-04-23T11:18:56.870Z,99.90
2019-04-23T11:21:28.188Z,99.90
2019-04-23T11:26:31.657Z,99.90
2019-04-23T11:28:52.956Z,99.90
2019-04-23T11:31:39.237Z,99.90
2019-04-23T11:34:12.260Z,99.90
2019-04-23T11:36:48.201Z,99.90
2019-04-23T11:38:58.474Z,99.90
2019-04-23T11:41:41.831Z,99.90
2019-04-23T11:44:03.922Z,99.90
2019-04-23T11:46:45.545Z,99.90
2019-04-23T11:49:19.715Z,99.90
2019-04-23T11:51:46.093Z,99.90
2019-04-23T11:54:07.355Z,99.90
2019-04-23T11:57:13.466Z,99.90
2019-04-23T11:59:10.217Z,99.90
2019-04-23T12:04:26.674Z,99.90
2019-04-23T12:07:00.672Z,99.10
2019-04-23T12:09:43.109Z,99.90
2019-04-23T12:12:22.374Z,99.90
2019-04-23T12:14:37.167Z,99.50
2019-04-23T12:17:15.246Z,98.40
2019-04-23T12:19:57.730Z,99.80
2019-04-23T12:22:15.186Z,95.60
2019-04-23T12:25:03.465Z,92.70
2019-04-23T12:29:37.377Z,93.60
2019-04-23T12:35:16.243Z,96.60
2019-04-23T12:37:34.656Z,95.50
2019-04-23T12:40:12.829Z,95.80
2019-04-23T12:42:48.897Z,95.80
2019-04-23T12:47:43.692Z,93.90
2019-04-23T12:50:31.099Z,94.70
2019-04-23T12:52:41.217Z,92.20
2019-04-23T12:55:13.625Z,93.40
2019-04-23T12:57:34.403Z,91.90
2019-04-23T13:00:05.065Z,94.00
2019-04-23T13:05:11.830Z,93.50
2019-04-23T13:07:38.198Z,95.40
2019-04-23T13:10:09.185Z,93.70
2019-04-23T13:12:44.906Z,92.80
2019-04-23T13:15:11.373Z,92.90
2019-04-23T13:17:50.592Z,92.70
2019-04-23T13:22:53.473Z,93.50
2019-04-23T13:25:10.155Z,93.30
2019-04-23T13:27:53.953Z,93.90
2019-04-23T13:30:23.168Z,93.60
2019-04-23T13:32:52.189Z,93.30
2019-04-23T13:35:27.725Z,92.20
2019-04-23T13:37:57.164Z,92.10
2019-04-23T13:40:24.468Z,91.00
2019-04-23T13:42:55.469Z,90.40
2019-04-23T13:45:53.330Z,88.20
2019-04-23T13:47:53.202Z,87.10
2019-04-23T13:50:35.183Z,86.70
2019-04-23T13:53:08.114Z,86.70
2019-04-23T13:55:15.277Z,84.60
2019-04-23T14:02:48.841Z,82.70
2019-04-23T14:07:59.694Z,81.60
2019-04-23T14:10:36.621Z,80.80
2019-04-23T14:13:24.070Z,80.00
2019-04-23T14:21:08.071Z,77.70
2019-04-23T14:26:06.874Z,75.90
2019-04-23T14:28:21.612Z,76.30
2019-04-23T14:30:53.482Z,73.10
2019-04-23T14:38:25.202Z,73.80
2019-04-23T14:40:58.926Z,72.50
2019-04-23T14:43:38.786Z,70.70
2019-04-23T14:46:27.083Z,71.50
2019-04-23T14:48:49.637Z,71.10
2019-04-23T14:51:11.374Z,67.80
2019-04-23T14:53:27.196Z,69.80
2019-04-23T14:56:00.259Z,66.60
2019-04-23T15:03:40.216Z,66.50
2019-04-23T15:06:26.359Z,62.70
2019-04-23T15:08:48.236Z,64.20
2019-04-23T15:11:21.324Z,62.10
2019-04-23T15:13:39.132Z,60.10
2019-04-23T15:18:52.607Z,54.50
2019-04-23T15:21:38.018Z,55.60
2019-04-23T15:28:24.880Z,53.30
2019-04-23T15:31:21.056Z,52.80
2019-04-23T15:33:55.535Z,52.00
2019-04-23T15:38:58.204Z,51.70
2019-04-23T15:41:23.445Z,52.00
2019-04-23T15:43:53.247Z,49.20
2019-04-23T15:46:25.239Z,49.80
2019-04-23T15:49:05.648Z,50.80
2019-04-23T15:51:30.184Z,50.20
2019-04-23T15:53:48.575Z,51.30
2019-04-23T15:56:28.950Z,49.30
2019-04-23T15:59:02.797Z,51.30
2019-04-23T16:01:29.243Z,51.30
2019-04-23T16:03:29.029Z,54.20
2019-04-23T16:05:57.261Z,52.00
2019-04-23T16:11:33.583Z,50.90
2019-04-23T16:14:13.085Z,52.30
2019-04-23T16:16:29.981Z,51.50
2019-04-23T16:19:16.703Z,52.60
2019-04-23T16:21:49.718Z,53.70
2019-04-23T16:24:13.432Z,54.60
2019-04-23T16:26:47.496Z,56.30
2019-04-23T16:29:25.110Z,57.10
2019-04-23T16:31:40.258Z,58.10
2019-04-23T16:34:23.968Z,59.30
2019-04-23T16:36:54.678Z,58.40
2019-04-23T16:39:16.802Z,60.90
2019-04-23T16:41:54.721Z,60.90
2019-04-23T16:44:36.326Z,60.40
2019-04-23T16:46:55.872Z,59.30
2019-04-23T16:49:30.561Z,59.20
2019-04-23T16:51:50.537Z,60.20
2019-04-23T16:59:24.731Z,59.50
2019-04-23T17:02:02.096Z,62.20
2019-04-23T17:04:24.400Z,62.30
2019-04-23T17:06:57.625Z,61.40
2019-04-23T17:09:31.520Z,62.50
2019-04-23T17:12:07.704Z,60.90
2019-04-23T17:14:23.204Z,62.40
2019-04-23T17:16:49.388Z,62.30
2019-04-23T17:19:31.741Z,61.20
2019-04-23T17:22:02.825Z,64.40
2019-04-23T17:24:23.298Z,65.30
2019-04-23T17:27:00.870Z,66.70
2019-04-23T17:29:28.234Z,65.70
2019-04-23T17:32:05.574Z,65.10
2019-04-23T17:34:48.422Z,66.70
2019-04-23T17:37:29.920Z,66.80
2019-04-23T17:40:08.586Z,69.60
2019-04-23T17:45:16.909Z,68.10
2019-04-23T17:47:53.478Z,68.00
2019-04-23T17:50:28.749Z,67.80
2019-04-23T17:52:58.358Z,69.70
2019-04-23T17:55:26.079Z,70.50
2019-04-23T17:57:50.185Z,70.30
2019-04-23T18:02:59.131Z,73.80
2019-04-23T18:05:17.982Z,74.50
2019-04-23T18:08:01.437Z,73.10
2019-04-23T18:10:38.778Z,75.00
2019-04-23T18:15:35.392Z,77.80
2019-04-23T18:17:57.174Z,78.00
2019-04-23T18:20:50.636Z,77.40
2019-04-23T18:23:10.000Z,76.40
2019-04-23T18:28:15.118Z,77.50
2019-04-23T18:30:57.330Z,78.90
2019-04-23T18:35:50.931Z,79.80
2019-04-23T18:38:31.869Z,79.40
2019-04-23T18:41:02.355Z,79.20
2019-04-23T18:45:59.209Z,80.90
2019-04-23T18:51:03.324Z,79.80
2019-04-23T18:56:06.709Z,79.80
2019-04-23T18:58:44.556Z,82.40
2019-04-23T19:01:05.345Z,82.90
2019-04-23T19:03:48.418Z,83.80
2019-04-23T19:12:14.440Z,83.30
2019-04-23T19:14:35.293Z,83.10
2019-04-23T19:17:30.687Z,83.30
2019-04-23T19:22:14.538Z,81.10
2019-04-23T19:24:31.763Z,83.70
2019-04-23T19:27:10.771Z,80.80
2019-04-23T19:29:40.216Z,80.40
2019-04-23T19:34:39.498Z,80.70
2019-04-23T19:44:43.816Z,84.70
2019-04-23T19:47:30.004Z,84.70
2019-04-23T19:49:36.586Z,85.10
2019-04-23T19:52:03.555Z,87.10
2019-04-23T19:57:11.986Z,90.10
2019-04-23T19:59:45.057Z,90.60
2019-04-23T20:04:42.453Z,91.70
2019-04-23T20:07:22.458Z,92.10
2019-04-23T20:12:28.453Z,92.70
2019-04-23T20:14:48.778Z,93.20
2019-04-23T20:17:34.080Z,93.90
2019-04-23T20:19:44.277Z,93.40
2019-04-23T20:25:04.094Z,94.70
2019-04-23T20:27:18.517Z,95.80
2019-04-23T20:30:04.846Z,95.50
2019-04-23T20:33:00.602Z,96.10
2019-04-23T20:37:27.664Z,97.00
2019-04-23T20:39:56.787Z,97.90
2019-04-23T20:42:26.395Z,98.50
2019-04-23T20:49:58.551Z,99.20
2019-04-23T20:52:12.916Z,99.50
2019-04-23T20:55:09.940Z,99.90
2019-04-23T20:57:42.865Z,99.90
2019-04-23T21:00:16.958Z,99.90
2019-04-23T21:05:16.262Z,99.90
2019-04-23T21:07:54.492Z,99.90
2019-04-23T21:15:24.155Z,99.90
2019-04-23T21:20:30.100Z,99.90
2019-04-23T21:23:03.107Z,99.90
2019-04-23T21:25:27.406Z,99.90
2019-04-23T21:30:55.843Z,99.90
2019-04-23T21:33:11.973Z,99.90
2019-04-23T21:36:10.528Z,99.90
2019-04-23T21:38:49.377Z,99.90
2019-04-23T21:41:17.521Z,99.90
2019-04-23T21:44:06.004Z,99.90
2019-04-23T21:46:20.437Z,99.90
2019-04-23T21:49:05.133Z,99.90
2019-04-23T21:51:24.181Z,99.90
2019-04-23T21:53:46.379Z,99.90
2019-04-23T21:56:16.763Z,99.90
2019-04-23T21:58:56.682Z,99.90
2019-04-23T22:01:27.873Z,99.90
2019-04-23T22:06:28.578Z,99.90
2019-04-23T22:23:57.747Z,99.90
2019-04-23T22:26:28.588Z,99.90
2019-04-23T22:29:05.645Z,99.90
2019-04-23T22:36:29.691Z,99.90
2019-04-23T22:41:35.809Z,99.90
2019-04-23T22:44:05.398Z,99.90
2019-04-23T22:46:35.400Z,99.90
2019-04-23T22:49:16.015Z,99.90
2019-04-23T22:51:41.479Z,99.90
2019-04-23T22:54:05.511Z,99.90
2019-04-23T22:56:42.662Z,99.90
2019-04-23T23:01:51.269Z,99.90
2019-04-23T23:06:50.131Z,99.90
2019-04-23T23:11:42.839Z,99.90
2019-04-23T23:19:14.895Z,99.90
2019-04-23T23:21:54.532Z,99.90
2019-04-23T23:26:49.476Z,99.90
2019-04-23T23:29:05.736Z,99.90
2019-04-23T23:31:44.003Z,99.90
2019-04-23T23:36:47.650Z,99.90
2019-04-23T23:39:22.900Z,99.90
2019-04-23T23:49:20.382Z,99.90
2019-04-23T23:51:44.789Z,99.90
2019-04-23T23:57:00.778Z,99.90
